Airfield :
LOGIN :

Register | Disclaimer

   EN    FR    IT 

 










Legend :    VFR   Marginal VFR   IFR   Intensive IFR   Very Intensive IFR
Visi :
Ceiling :
>= 8 km
>= 3000ft
5 to 8 km
1000 to 3000 ft
1500m to 5 km
500 to 1000 ft
800 to 1500m
200 to 500 ft
< 800m
< 200 ft
Symbols :   Thunderstorms  Fog  Heavy snow  Heavy precipitations  Wind > 20 kt
SIGMETs :     Misc.  Thunderstorms  Icing  Turbulence  Mountain Waves  Volcanic Ashes






- Airport Elevation : 622 ft
- IATA code : BRS


EGGD - Bristol Int.

CURRENT METAR :
  • 250850Z AUTO 36003KT 300V080 9999 SCT015 20/16 Q1017

EXPIRED METARs :
  • 250820Z AUTO 03003KT 340V120 9999 NCD 20/17 Q1017
  • 250750Z AUTO 05003KT 350V110 9999 NCD 19/16 Q1017
  • 250720Z AUTO 04005KT 010V080 9999 NCD 19/16 Q1017
  • 250650Z AUTO 03003KT 300V090 9999 SCT032 17/16 Q1017
  • 250620Z 32003KT 290V360 9999 FEW002 SCT032 16/16 Q1017
  • 250550Z VRB02KT 7000 3000W FEW002 SCT032 16/16 Q1017
  • 250520Z 28004KT 7000 2500W OVC032 15/15 Q1017
  • 250450Z AUTO 27003KT 7000 OVC032 15/15 Q1017
  • 250420Z AUTO 25003KT 210V280 5000 BR OVC032 15/15 Q1017

TAF AMD TAF EGGD
Valid from the 25 at 07:00 until the 26 at 06:00 UTC


250759Z 2507/2606 35004KT 9999 FEW035
PROB30 2603/2606 7000
ATIS : +44 1275 473 666



MET'MAP, your aeronautical weather chart ! - Copyright ORBIFLY December 2007 - Disclaimer

ORBIFLY MET'MAP TEAM :

Programming & Development : Alexandra Zaïnal
Original concept : Baudouin d'Aumeries
Technical & hardware support : Manuel Goepfert
Assistance : Marc-Olivier Méhu




SOURCES & CREDITS :

   NOAA